Nearby METAR Reports

 

YBUD - Bundaberg, Australia
Distance from station: SSW 6km
Updated: 12/11/2022 06:00
NOT Current
Clear
Clear
 Wind from calm
Wind: Calm
Temperature: 17°C
Dew Point: 16°C
Humidity: 94%
Barometer: 1014 hPa
Clouds: Clear
Visibility: 10 km
2022/11/11 20:00 YBUD 112000Z AUTO 00000KT 9999 // NCD 17/16 Q1014
YGLA - Gladstone, Australia
Distance from station: NW 159km
Updated: 21/02/2024 12:00
Partly cloudy
Partly cloudy
 Wind from NE
Wind: NE 19 km/h
Temperature: 31°C
Heat Index: 36°C
Dew Point: 23°C
Humidity: 62%
Barometer: 1012 hPa
Clouds: Partly cloudy
Visibility: 10 km
Cloud details: Partly cloudy 1067 m
2024/02/21 02:00 YGLA 210200Z AUTO 05010KT 9999 // SCT035 31/23 Q1012 RF00.0/000.0
YBRK - Rockhampton Airp, Australia
Distance from station: NW 252km
Updated: 21/02/2024 12:00
Partly cloudy
Partly cloudy
 Wind from SE
Wind: SE 11 km/h
Temperature: 32°C
Heat Index: 34°C
Dew Point: 20°C
Humidity: 49%
Barometer: 1012 hPa
Clouds: Partly cloudy
Visibility: 10 km
Cloud details: Partly cloudy 1341 m
Partly cloudy 1554 m
2024/02/21 02:00 YBRK 210200Z AUTO 14006KT 9999 // SCT044 SCT051 32/20 Q1012
 
YBBN - Brisbane Intl Ar, Australia
Distance from station: SSE 292km
Updated: 21/02/2024 12:00
Mostly cloudy
Mostly cloudy
 Wind from NE
Wind: NE 13 km/h
Temperature: 30°C
Heat Index: 31°C
Dew Point: 19°C
Humidity: 52%
Barometer: 1013 hPa
Clouds: Mostly cloudy
Visibility: 10 km
Cloud details: Few Clouds 1219 m
Mostly cloudy 9754 m
2024/02/21 02:00 YBBN 210200Z 05007KT 9999 FEW040 BKN320 30/19 Q1013 RF00.0/000.0
YAMB - Amberley, Australia
Distance from station: S 312km
Updated: 21/02/2024 12:00
Mostly cloudy
Mostly cloudy
 Wind from E
Wind: E 4 km/h
Temperature: 30°C
Heat Index: 31°C
Dew Point: 19°C
Humidity: 52%
Barometer: 1013 hPa
Clouds: Mostly cloudy
Visibility: 10 km
Cloud details: Partly cloudy 1128 m
Partly cloudy 6706 m
Mostly cloudy 9144 m
2024/02/21 02:00 YAMB 210200Z 10002KT 9999 SCT037 SCT220 BKN300 30/19 Q1013 RF00.0/000.0
YBCG - Coolangatta Aws, Australia
Distance from station: SSE 386km
Updated: 21/02/2024 12:00
Partly cloudy
Partly cloudy
 Wind from ESE
Wind: ESE 17 km/h
Temperature: 29°C
Heat Index: 31°C
Dew Point: 21°C
Humidity: 62%
Barometer: 1013 hPa
Clouds: Partly cloudy
Visibility: 10 km
Cloud details: Partly cloudy 1128 m
2024/02/21 02:00 YBCG 210200Z AUTO 11009KT 9999 // SCT037 29/21 Q1013 RF00.0/000.0